NCAR-RAP Real-Time Weather Data

Output produced by METARs form (10 April 2020  07:20 UTC)
found at http://weather.rap.ucar.edu/surface/
 
KLIT 100653Z 36008KT 10SM FEW120 BKN200 12/01 A3005 RMK AO2 SLP178 T01170011
KLIT 100553Z 36008KT 10SM FEW120 BKN200 14/00 A3004 RMK AO2 SLP174 T01390000 10200 20139 402280139 51025
KLIT 100453Z 36014G19KT 10SM BKN120 16/01 A3001 RMK AO2 SLP164 T01560006
KLIT 100353Z 35010KT 10SM FEW120 OVC200 17/01 A3000 RMK AO2 SLP159 T01670006
KLIT 100253Z 36009KT 10SM OVC200 17/02 A2997 RMK AO2 SLP149 T01720022 53022
KLIT 100153Z 36007KT 10SM BKN150 OVC250 18/03 A2994 RMK AO2 SLP140 T01780033
KLIT 100053Z 33007KT 10SM BKN150 OVC250 19/05 A2991 RMK AO2 SLP128 T01940050
KLIT 092353Z 00000KT 10SM OVC200 20/06 A2990 RMK AO2 SLP127 T02000061 10228 20189 56006
KLIT 092253Z 16005KT 10SM OVC250 21/06 A2991 RMK AO2 SLP128 T02060061
KLIT 092153Z 00000KT 10SM SCT150 BKN250 22/04 A2991 RMK AO2 SLP127 T02220044
KLIT 092053Z 00000KT 10SM FEW150 BKN200 22/04 A2992 RMK AO2 SLP132 T02170044 58031
KLIT 091953Z 22007KT 10SM BKN200 22/04 A2997 RMK AO2 SLP147 T02170044
KLIT 091853Z 00000KT 10SM SCT200 21/04 A2999 RMK AO2 SLP156 T02060044
KLIT 091753Z 11006KT 10SM BKN200 19/04 A3001 RMK AO2 SLP164 T01940039 10206 20144 50002
KLIT 091653Z 04008KT 10SM SCT200 19/04 A3003 RMK AO2 SLP168 T01940044
KLIT 091553Z VRB06KT 10SM SCT200 19/04 A3004 RMK AO2 SLP171 T01890044
KLIT 091453Z 04010G15KT 10SM SCT200 17/06 A3001 RMK AO2 SLP161 T01720056 51016 $
KLIT 091353Z 03014G20KT 10SM SCT200 16/06 A2999 RMK AO2 SLP157 T01610061 $
KLIT 091253Z 03012KT 10SM BKN200 16/07 A2999 RMK AO2 SLP157 T01560067 $
KLIT 091153Z 02007KT 10SM BKN200 15/08 A2996 RMK AO2 SLP146 70011 T01500078 10222 20150 53027 $
KLIT 091053Z 01007KT 10SM FEW100 16/08 A2993 RMK AO2 SLP135 T01560083 $
KLIT 090953Z 02011KT 10SM CLR 17/08 A2991 RMK AO2 SLP127 T01720078 $
KLIT 090853Z 36011KT 10SM FEW100 19/10 A2988 RMK AO2 PK WND 36026/0754 SLP119 T01890100 53048 $